createdAt,value
2023-02-22T00:01:03.039Z,76.03
2023-02-22T00:03:33.359Z,76.21
2023-02-22T00:06:04.944Z,76.21
2023-02-22T00:08:35.572Z,76.23
2023-02-22T00:11:08.413Z,76.14
2023-02-22T00:13:38.669Z,76.06
2023-02-22T00:16:07.427Z,76.08
2023-02-22T00:18:35.360Z,76.12
2023-02-22T00:21:03.268Z,76.13
2023-02-22T00:23:32.807Z,76.16
2023-02-22T00:26:01.762Z,76.37
2023-02-22T00:28:30.838Z,76.19
2023-02-22T00:31:00.318Z,76.08
2023-02-22T00:33:28.425Z,75.96
2023-02-22T00:35:56.225Z,75.99
2023-02-22T00:38:24.283Z,76.27
2023-02-22T00:40:52.738Z,76.06
2023-02-22T00:43:20.724Z,76.15
2023-02-22T00:45:49.165Z,76.17
2023-02-22T00:48:18.797Z,76.11
2023-02-22T00:50:48.595Z,76.04
2023-02-22T00:53:17.635Z,76.26
2023-02-22T00:55:47.785Z,76.26
2023-02-22T00:58:15.973Z,75.81
2023-02-22T01:00:46.524Z,76.04
2023-02-22T01:03:15.944Z,76.19
2023-02-22T01:05:45.805Z,76.16
2023-02-22T01:08:16.603Z,76.28
2023-02-22T01:10:45.205Z,76.30
2023-02-22T01:13:14.026Z,76.06
2023-02-22T01:15:44.915Z,76.05
2023-02-22T01:18:17.317Z,75.95
2023-02-22T01:20:48.120Z,76.09
2023-02-22T01:23:17.406Z,75.98
2023-02-22T01:25:45.512Z,75.92
2023-02-22T01:28:15.254Z,75.99
2023-02-22T01:30:43.219Z,76.00
2023-02-22T01:33:12.859Z,76.20
2023-02-22T01:35:41.874Z,76.02
2023-02-22T01:38:11.638Z,75.96
2023-02-22T01:40:42.270Z,76.19
2023-02-22T01:43:22.412Z,75.99
2023-02-22T01:45:55.126Z,75.95
2023-02-22T01:48:31.511Z,76.20
2023-02-22T01:51:02.510Z,76.14
2023-02-22T01:53:38.286Z,76.13
2023-02-22T01:56:07.001Z,76.12
2023-02-22T01:58:37.582Z,76.05
2023-02-22T02:01:08.627Z,75.89
2023-02-22T02:03:39.615Z,75.96
2023-02-22T02:06:12.955Z,76.11
2023-02-22T02:08:51.676Z,76.21
2023-02-22T02:11:22.256Z,76.14
2023-02-22T02:13:51.589Z,76.17
2023-02-22T02:16:21.579Z,75.93
2023-02-22T02:18:49.974Z,76.15
2023-02-22T02:21:49.896Z,76.16
2023-02-22T02:24:54.693Z,75.99
2023-02-22T02:27:26.666Z,75.82
2023-02-22T02:30:34.893Z,76.00
2023-02-22T02:33:12.494Z,76.13
2023-02-22T02:35:50.308Z,76.08
2023-02-22T02:38:30.411Z,76.08
2023-02-22T02:41:05.784Z,75.95
2023-02-22T02:43:38.300Z,76.02
2023-02-22T02:46:11.780Z,75.88
2023-02-22T02:48:47.035Z,75.80
2023-02-22T02:51:17.611Z,76.10
2023-02-22T02:53:51.246Z,76.08
2023-02-22T02:56:19.038Z,76.17
2023-02-22T02:58:50.175Z,75.97
2023-02-22T03:01:44.711Z,75.98
2023-02-22T03:04:26.810Z,75.76
2023-02-22T03:07:09.601Z,76.01
2023-02-22T03:09:47.374Z,75.76
2023-02-22T03:12:33.253Z,75.87
2023-02-22T03:15:13.881Z,75.86
2023-02-22T03:17:48.941Z,76.03
2023-02-22T03:20:31.562Z,76.14
2023-02-22T03:23:05.271Z,75.81
2023-02-22T03:25:38.532Z,75.83
2023-02-22T03:28:11.524Z,76.16
2023-02-22T03:30:44.031Z,76.12
2023-02-22T03:33:16.626Z,76.06
2023-02-22T03:35:51.278Z,76.02
2023-02-22T03:38:21.231Z,76.02
2023-02-22T03:40:54.464Z,75.90
2023-02-22T03:43:26.735Z,76.20
2023-02-22T03:45:55.368Z,75.88
2023-02-22T03:48:27.536Z,76.05
2023-02-22T03:51:01.034Z,76.18
2023-02-22T03:53:30.581Z,76.07
2023-02-22T03:56:02.994Z,76.15
2023-02-22T03:58:34.348Z,75.96
2023-02-22T04:01:02.317Z,76.12
2023-02-22T04:03:30.116Z,75.90
2023-02-22T04:05:59.264Z,76.03
2023-02-22T04:08:27.013Z,76.15
2023-02-22T04:10:54.855Z,75.92
2023-02-22T04:13:23.879Z,75.96
2023-02-22T04:15:51.676Z,75.92
2023-02-22T04:18:19.721Z,76.07
2023-02-22T04:20:47.727Z,76.19
2023-02-22T04:23:17.383Z,75.97
2023-02-22T04:25:45.434Z,76.14
2023-02-22T04:28:13.538Z,76.03
2023-02-22T04:30:41.329Z,76.03
2023-02-22T04:33:09.309Z,76.19
2023-02-22T04:35:37.135Z,75.92
2023-02-22T04:38:05.010Z,75.99
2023-02-22T04:40:34.191Z,75.94
2023-02-22T04:43:02.406Z,76.11
2023-02-22T04:45:30.172Z,76.04
2023-02-22T04:47:58.562Z,76.04
2023-02-22T04:50:28.176Z,75.88
2023-02-22T04:53:00.764Z,75.87
2023-02-22T04:55:29.337Z,75.91
2023-02-22T04:57:59.117Z,76.04
2023-02-22T05:00:27.265Z,76.27
2023-02-22T05:02:55.131Z,75.98
2023-02-22T05:05:23.560Z,75.85
2023-02-22T05:07:51.639Z,76.14
2023-02-22T05:10:19.736Z,76.16
2023-02-22T05:12:47.884Z,75.95
2023-02-22T05:15:20.665Z,76.03
2023-02-22T05:17:48.597Z,75.94
2023-02-22T05:20:22.878Z,75.96
2023-02-22T05:22:52.023Z,75.90
2023-02-22T05:25:21.438Z,75.92
2023-02-22T05:27:53.708Z,76.14
2023-02-22T05:30:25.998Z,76.00
2023-02-22T05:32:54.459Z,75.84
2023-02-22T05:35:23.339Z,75.97
2023-02-22T05:37:51.751Z,75.97
2023-02-22T05:40:21.063Z,75.94
2023-02-22T05:42:49.393Z,76.18
2023-02-22T05:45:19.626Z,75.94
2023-02-22T05:47:49.240Z,75.99
2023-02-22T05:50:18.524Z,76.08
2023-02-22T05:52:46.601Z,76.02
2023-02-22T05:55:16.322Z,75.94
2023-02-22T05:57:44.233Z,76.17
2023-02-22T06:00:18.273Z,76.10
2023-02-22T06:02:46.342Z,76.17
2023-02-22T06:05:15.607Z,76.04
2023-02-22T06:07:43.504Z,76.14
2023-02-22T06:10:11.288Z,76.02
2023-02-22T06:12:39.060Z,76.26
2023-02-22T06:15:07.608Z,76.06
2023-02-22T06:17:36.259Z,76.28
2023-02-22T06:20:04.234Z,76.13
2023-02-22T06:22:33.362Z,76.12
2023-02-22T06:25:03.200Z,76.00
2023-02-22T06:27:32.398Z,76.15
2023-02-22T06:30:01.537Z,76.25
2023-02-22T06:32:29.828Z,76.08
2023-02-22T06:34:57.666Z,76.26
2023-02-22T06:37:25.475Z,76.17
2023-02-22T06:39:54.634Z,76.13
2023-02-22T06:42:22.599Z,76.11
2023-02-22T06:44:51.774Z,76.13
2023-02-22T06:47:19.813Z,76.25
2023-02-22T06:49:53.857Z,76.06
2023-02-22T06:52:23.948Z,76.19
2023-02-22T06:54:55.464Z,76.29
2023-02-22T06:57:23.189Z,76.19
2023-02-22T06:59:51.457Z,76.36
2023-02-22T07:02:19.430Z,76.21
2023-02-22T07:04:47.358Z,76.13
2023-02-22T07:07:15.259Z,76.48
2023-02-22T07:09:45.542Z,76.40
2023-02-22T07:12:14.949Z,76.23
2023-02-22T07:14:42.678Z,76.53
2023-02-22T07:17:11.606Z,76.53
2023-02-22T07:19:40.057Z,76.66
2023-02-22T07:22:07.846Z,76.24
2023-02-22T07:24:36.129Z,76.48
2023-02-22T07:27:03.985Z,76.50
2023-02-22T07:29:36.021Z,76.44
2023-02-22T07:32:04.192Z,76.57
2023-02-22T07:34:31.954Z,76.45
2023-02-22T07:36:59.716Z,76.86
2023-02-22T07:39:27.567Z,76.32
2023-02-22T07:41:55.376Z,76.81
2023-02-22T07:44:23.319Z,76.27
2023-02-22T07:46:52.437Z,76.75
2023-02-22T07:49:20.385Z,76.59
2023-02-22T07:51:48.207Z,76.51
2023-02-22T07:54:16.101Z,76.79
2023-02-22T07:56:46.603Z,76.77
2023-02-22T07:59:14.474Z,77.00
2023-02-22T08:01:43.094Z,76.87
2023-02-22T08:04:12.246Z,76.98
2023-02-22T08:06:40.281Z,76.97
2023-02-22T08:09:08.036Z,77.41
2023-02-22T08:11:35.809Z,77.14
2023-02-22T08:14:03.632Z,77.06
2023-02-22T08:16:31.447Z,77.13
2023-02-22T08:18:59.270Z,77.03
2023-02-22T08:21:28.441Z,77.22
2023-02-22T08:23:56.193Z,77.17
2023-02-22T08:26:25.416Z,77.27
2023-02-22T08:28:53.428Z,77.46
2023-02-22T08:31:21.431Z,77.25
2023-02-22T08:33:50.352Z,77.50
2023-02-22T08:36:18.652Z,77.14
2023-02-22T08:38:47.792Z,77.25
2023-02-22T08:41:15.691Z,77.22
2023-02-22T08:43:43.691Z,77.09
2023-02-22T08:46:11.529Z,77.13
2023-02-22T08:48:39.271Z,77.22
2023-02-22T08:51:07.157Z,77.58
2023-02-22T08:53:35.302Z,77.21
2023-02-22T08:56:07.109Z,77.30
2023-02-22T08:58:35.518Z,77.04
2023-02-22T09:01:03.360Z,77.16
2023-02-22T09:03:31.219Z,77.29
2023-02-22T09:06:00.424Z,77.25
2023-02-22T09:08:28.383Z,77.42
2023-02-22T09:10:56.132Z,77.08
2023-02-22T09:13:25.414Z,77.83
2023-02-22T09:15:53.197Z,77.31
2023-02-22T09:18:21.169Z,77.36
2023-02-22T09:20:49.017Z,77.84
2023-02-22T09:23:16.782Z,77.57
2023-02-22T09:25:44.507Z,77.71
2023-02-22T09:28:12.325Z,77.66
2023-02-22T09:30:41.724Z,77.88
2023-02-22T09:33:12.372Z,77.71
2023-02-22T09:35:42.778Z,77.87
2023-02-22T09:38:11.904Z,78.04
2023-02-22T09:40:45.947Z,77.49
2023-02-22T09:43:25.434Z,77.65
2023-02-22T09:46:07.637Z,77.46
2023-02-22T09:48:40.076Z,77.61
2023-02-22T09:51:18.184Z,77.64
2023-02-22T09:53:52.359Z,77.12
2023-02-22T09:56:22.456Z,77.72
2023-02-22T09:58:55.759Z,77.82
2023-02-22T10:01:29.157Z,77.16
2023-02-22T10:04:05.249Z,77.82
2023-02-22T10:06:35.363Z,77.42
2023-02-22T10:09:07.932Z,77.35
2023-02-22T10:11:53.458Z,77.38
2023-02-22T10:14:49.267Z,77.10
2023-02-22T10:17:29.696Z,76.95
2023-02-22T10:20:13.468Z,77.00
2023-02-22T10:22:49.905Z,77.23
2023-02-22T10:25:21.476Z,77.16
2023-02-22T10:27:56.726Z,76.90
2023-02-22T10:30:27.937Z,76.94
2023-02-22T10:33:06.760Z,76.94
2023-02-22T10:35:37.147Z,76.70
2023-02-22T10:38:16.615Z,76.68
2023-02-22T10:40:47.948Z,76.82
2023-02-22T10:43:16.059Z,76.42
2023-02-22T10:45:43.990Z,76.47
2023-02-22T10:48:18.440Z,76.64
2023-02-22T10:50:47.759Z,76.76
2023-02-22T10:53:16.457Z,76.60
2023-02-22T10:56:16.039Z,76.53
2023-02-22T10:58:47.784Z,76.49
2023-02-22T11:01:27.274Z,76.37
2023-02-22T11:04:01.295Z,76.54
2023-02-22T11:06:29.704Z,76.69
2023-02-22T11:09:13.853Z,75.89
2023-02-22T11:11:44.103Z,76.16
2023-02-22T11:14:13.300Z,76.23
2023-02-22T11:16:44.523Z,76.21
2023-02-22T11:19:24.008Z,76.21
2023-02-22T11:21:54.465Z,76.26
2023-02-22T11:24:30.360Z,76.25
2023-02-22T11:27:03.650Z,76.35
2023-02-22T11:29:34.250Z,76.19
2023-02-22T11:32:04.283Z,75.91
2023-02-22T11:34:37.561Z,75.72
2023-02-22T11:37:30.606Z,76.27
2023-02-22T11:40:07.979Z,76.01
2023-02-22T11:42:35.734Z,75.91
2023-02-22T11:45:13.510Z,75.65
2023-02-22T11:47:55.799Z,76.04
2023-02-22T11:50:30.178Z,75.87
2023-02-22T11:53:14.497Z,75.74
2023-02-22T11:55:52.490Z,75.97
2023-02-22T11:58:40.433Z,76.03
2023-02-22T12:01:17.648Z,75.79
2023-02-22T12:04:03.216Z,76.02
2023-02-22T12:06:43.933Z,76.07
2023-02-22T12:09:18.829Z,75.84
2023-02-22T12:11:58.348Z,75.74
2023-02-22T12:14:35.900Z,75.89
2023-02-22T12:17:20.509Z,75.88
2023-02-22T12:19:50.896Z,75.61
2023-02-22T12:22:25.941Z,75.76
2023-02-22T12:25:08.985Z,75.43
2023-02-22T12:27:43.248Z,75.62
2023-02-22T12:30:17.492Z,75.44
2023-02-22T12:32:50.616Z,75.47
2023-02-22T12:35:24.596Z,75.54
2023-02-22T12:38:04.141Z,75.35
2023-02-22T12:40:38.305Z,75.48
2023-02-22T12:43:16.732Z,75.25
2023-02-22T12:45:49.357Z,75.03
2023-02-22T12:48:36.469Z,75.11
2023-02-22T12:51:24.976Z,75.29
2023-02-22T12:54:01.350Z,74.97
2023-02-22T12:56:35.275Z,74.98
2023-02-22T12:59:11.239Z,75.12
2023-02-22T13:01:42.065Z,75.24
2023-02-22T13:04:20.626Z,75.26
2023-02-22T13:07:12.430Z,75.22
2023-02-22T13:10:14.395Z,75.29
2023-02-22T13:12:53.025Z,74.79
2023-02-22T13:15:27.738Z,74.92
2023-02-22T13:18:03.932Z,74.67
2023-02-22T13:20:35.519Z,75.05
2023-02-22T13:23:10.347Z,75.05
2023-02-22T13:25:46.650Z,74.65
2023-02-22T13:28:30.188Z,74.55
2023-02-22T13:31:21.856Z,74.83
2023-02-22T13:34:06.283Z,74.67
2023-02-22T13:36:39.535Z,74.82
2023-02-22T13:39:34.574Z,74.79
2023-02-22T13:42:30.234Z,74.61
2023-02-22T13:45:23.067Z,74.65
2023-02-22T13:48:17.601Z,74.43
2023-02-22T13:50:59.196Z,74.32
2023-02-22T13:53:35.022Z,74.84
2023-02-22T13:56:03.610Z,74.94
2023-02-22T13:58:34.269Z,74.80
2023-02-22T14:01:02.881Z,74.52
2023-02-22T14:03:41.149Z,74.75
2023-02-22T14:06:11.472Z,74.13
2023-02-22T14:08:46.847Z,74.50
2023-02-22T14:11:54.279Z,74.68
2023-02-22T14:14:25.068Z,73.99
2023-02-22T14:17:21.872Z,74.03
2023-02-22T14:20:02.612Z,74.08
2023-02-22T14:22:30.990Z,74.28
2023-02-22T14:24:59.643Z,74.20
2023-02-22T14:27:41.472Z,74.34
2023-02-22T14:30:27.609Z,74.39
2023-02-22T14:32:56.517Z,74.25
2023-02-22T14:35:30.012Z,74.49
2023-02-22T14:38:02.701Z,74.30
2023-02-22T14:40:33.413Z,74.08
2023-02-22T14:43:06.334Z,74.37
2023-02-22T14:45:43.345Z,74.19
2023-02-22T14:48:23.981Z,74.11
2023-02-22T14:50:55.484Z,74.34
2023-02-22T14:53:34.828Z,73.87
2023-02-22T14:56:07.883Z,74.18
2023-02-22T14:58:41.789Z,74.28
2023-02-22T15:01:47.445Z,73.93
2023-02-22T15:04:20.095Z,74.15
2023-02-22T15:06:48.964Z,73.86
2023-02-22T15:09:24.684Z,74.02
2023-02-22T15:11:56.384Z,73.92
2023-02-22T15:14:27.003Z,74.08
2023-02-22T15:16:59.611Z,73.93
2023-02-22T15:19:29.575Z,74.20
2023-02-22T15:21:59.596Z,73.99
2023-02-22T15:24:29.147Z,74.11
2023-02-22T15:27:05.973Z,73.95
2023-02-22T15:29:37.263Z,74.13
2023-02-22T15:32:20.284Z,74.31
2023-02-22T15:34:48.396Z,74.02
2023-02-22T15:37:25.478Z,73.84
2023-02-22T15:39:59.358Z,73.80
2023-02-22T15:42:30.555Z,73.99
2023-02-22T15:44:58.598Z,73.81
2023-02-22T15:47:32.005Z,73.76
2023-02-22T15:50:18.630Z,73.91
2023-02-22T15:52:54.097Z,74.10
2023-02-22T15:55:25.770Z,73.92
2023-02-22T15:57:54.090Z,73.72
2023-02-22T16:00:25.452Z,73.59
2023-02-22T16:02:58.910Z,74.00
2023-02-22T16:05:36.064Z,74.00
2023-02-22T16:08:03.925Z,73.70
2023-02-22T16:10:33.909Z,73.92
2023-02-22T16:13:07.473Z,74.06
2023-02-22T16:15:35.943Z,73.91
2023-02-22T16:18:31.254Z,73.84
2023-02-22T16:21:00.568Z,73.93
2023-02-22T16:23:29.036Z,73.82
2023-02-22T16:26:22.741Z,73.81
2023-02-22T16:28:53.068Z,73.46
2023-02-22T16:31:22.426Z,73.74
2023-02-22T16:33:52.146Z,73.41
2023-02-22T16:36:21.920Z,73.58
2023-02-22T16:38:51.827Z,73.97
2023-02-22T16:41:20.502Z,73.65
2023-02-22T16:43:51.317Z,73.63
2023-02-22T16:46:20.378Z,73.45
2023-02-22T16:48:48.387Z,73.54
2023-02-22T16:51:23.965Z,73.44
2023-02-22T16:53:54.132Z,73.74
2023-02-22T16:56:26.561Z,73.51
2023-02-22T16:58:54.850Z,73.28
2023-02-22T17:01:23.841Z,73.61
2023-02-22T17:03:53.979Z,73.36
2023-02-22T17:06:23.310Z,73.72
2023-02-22T17:08:52.026Z,73.58
2023-02-22T17:11:20.581Z,73.29
2023-02-22T17:13:51.717Z,73.57
2023-02-22T17:16:19.805Z,73.69
2023-02-22T17:18:48.082Z,73.35
2023-02-22T17:21:16.704Z,73.72
2023-02-22T17:23:46.969Z,73.65
2023-02-22T17:26:16.551Z,73.52
2023-02-22T17:28:44.821Z,73.79
2023-02-22T17:31:21.779Z,73.59
2023-02-22T17:33:51.332Z,73.16
2023-02-22T17:36:19.496Z,73.40
2023-02-22T17:38:49.936Z,73.53
2023-02-22T17:41:17.915Z,73.42
2023-02-22T17:43:45.716Z,73.36
2023-02-22T17:46:13.952Z,73.40
2023-02-22T17:48:41.791Z,73.54
2023-02-22T17:51:11.789Z,73.74
2023-02-22T17:53:42.291Z,73.42
2023-02-22T17:56:13.427Z,73.69
2023-02-22T17:58:42.557Z,73.42
2023-02-22T18:01:21.849Z,73.64
2023-02-22T18:03:50.306Z,73.54
2023-02-22T18:06:22.605Z,73.48
2023-02-22T18:08:56.064Z,73.18
2023-02-22T18:11:27.222Z,73.41
2023-02-22T18:13:55.479Z,73.20
2023-02-22T18:16:25.493Z,73.31
2023-02-22T18:18:53.647Z,73.35
2023-02-22T18:21:21.651Z,73.19
2023-02-22T18:23:49.508Z,73.65
2023-02-22T18:26:23.401Z,73.59
2023-02-22T18:28:53.625Z,73.24
2023-02-22T18:31:23.441Z,73.43
2023-02-22T18:33:52.898Z,73.25
2023-02-22T18:36:22.884Z,72.99
2023-02-22T18:38:53.083Z,73.34
2023-02-22T18:41:25.201Z,73.44
2023-02-22T18:43:59.022Z,73.22
2023-02-22T18:46:27.795Z,73.31
2023-02-22T18:48:56.910Z,73.29
2023-02-22T18:51:26.548Z,73.48
2023-02-22T18:54:00.271Z,73.20
2023-02-22T18:56:30.839Z,73.26
2023-02-22T18:59:02.405Z,73.20
2023-02-22T19:01:31.538Z,73.14
2023-02-22T19:03:59.416Z,73.47
2023-02-22T19:06:27.237Z,73.38
2023-02-22T19:08:55.113Z,73.34
2023-02-22T19:11:25.264Z,73.24
2023-02-22T19:13:54.637Z,72.98
2023-02-22T19:16:25.574Z,73.19
2023-02-22T19:18:57.273Z,73.10
2023-02-22T19:21:26.956Z,73.20
2023-02-22T19:23:54.838Z,73.44
2023-02-22T19:26:24.944Z,73.36
2023-02-22T19:28:54.053Z,73.01
2023-02-22T19:31:26.594Z,73.12
2023-02-22T19:33:54.881Z,73.26
2023-02-22T19:36:24.142Z,72.87
2023-02-22T19:38:52.253Z,73.25
2023-02-22T19:41:22.825Z,73.08
2023-02-22T19:43:52.769Z,72.90
2023-02-22T19:46:21.984Z,73.32
2023-02-22T19:48:52.092Z,73.13
2023-02-22T19:51:24.471Z,72.99
2023-02-22T19:53:53.081Z,73.27
2023-02-22T19:56:27.211Z,73.21
2023-02-22T19:58:56.941Z,73.08
2023-02-22T20:01:27.775Z,73.10
2023-02-22T20:04:01.459Z,73.06
2023-02-22T20:06:31.651Z,72.94
2023-02-22T20:08:59.436Z,72.79
2023-02-22T20:11:28.002Z,73.01
2023-02-22T20:13:56.505Z,73.12
2023-02-22T20:16:25.054Z,72.96
2023-02-22T20:18:54.454Z,73.21
2023-02-22T20:21:30.802Z,72.93
2023-02-22T20:23:59.289Z,73.16
2023-02-22T20:26:29.595Z,73.06
2023-02-22T20:28:57.816Z,72.88
2023-02-22T20:31:25.672Z,72.94
2023-02-22T20:33:55.840Z,73.06
2023-02-22T20:36:25.885Z,72.86
2023-02-22T20:38:54.821Z,72.75
2023-02-22T20:41:25.264Z,73.08
2023-02-22T20:43:55.233Z,72.97
2023-02-22T20:46:24.768Z,73.03
2023-02-22T20:48:55.235Z,72.86
2023-02-22T20:51:23.436Z,72.97
2023-02-22T20:53:52.804Z,73.10
2023-02-22T20:56:24.562Z,72.89
2023-02-22T20:58:53.377Z,73.08
2023-02-22T21:01:22.462Z,73.05
2023-02-22T21:03:51.328Z,72.88
2023-02-22T21:06:21.518Z,72.97
2023-02-22T21:08:54.373Z,72.96
2023-02-22T21:11:23.595Z,73.15
2023-02-22T21:13:51.888Z,72.67
2023-02-22T21:16:22.318Z,72.78
2023-02-22T21:18:52.250Z,72.79
2023-02-22T21:21:20.562Z,72.95
2023-02-22T21:23:51.317Z,72.98
2023-02-22T21:26:23.510Z,73.16
2023-02-22T21:28:51.996Z,73.22
2023-02-22T21:31:21.930Z,73.08
2023-02-22T21:33:51.005Z,72.87
2023-02-22T21:36:19.881Z,72.83
2023-02-22T21:38:53.130Z,72.75
2023-02-22T21:41:24.891Z,73.09
2023-02-22T21:43:53.088Z,73.07
2023-02-22T21:46:22.691Z,73.04
2023-02-22T21:48:51.111Z,72.89
2023-02-22T21:51:21.660Z,73.00
2023-02-22T21:53:52.523Z,72.85
2023-02-22T21:56:24.591Z,72.85
2023-02-22T21:58:59.287Z,73.11
2023-02-22T22:01:28.470Z,73.11
2023-02-22T22:03:59.772Z,72.79
2023-02-22T22:06:29.147Z,72.98
2023-02-22T22:08:57.856Z,73.28
2023-02-22T22:11:27.548Z,72.98
2023-02-22T22:13:57.651Z,73.07
2023-02-22T22:16:29.842Z,73.09
2023-02-22T22:18:58.072Z,73.05
2023-02-22T22:21:26.105Z,72.83
2023-02-22T22:23:56.114Z,72.88
2023-02-22T22:26:27.486Z,73.08
2023-02-22T22:28:58.833Z,73.10
2023-02-22T22:31:28.835Z,72.68
2023-02-22T22:33:57.996Z,72.94
2023-02-22T22:36:27.604Z,73.17
2023-02-22T22:38:58.424Z,73.09
2023-02-22T22:41:28.879Z,72.81
2023-02-22T22:43:57.230Z,72.80
2023-02-22T22:46:25.102Z,72.72
2023-02-22T22:48:52.891Z,73.12
2023-02-22T22:51:22.141Z,73.09
2023-02-22T22:53:51.648Z,72.93
2023-02-22T22:56:26.493Z,72.75
2023-02-22T22:58:57.256Z,73.08
2023-02-22T23:01:32.456Z,73.24
2023-02-22T23:04:02.552Z,73.00
2023-02-22T23:06:32.973Z,73.15
2023-02-22T23:09:10.299Z,72.86
2023-02-22T23:11:44.264Z,72.87
2023-02-22T23:14:16.033Z,73.17
2023-02-22T23:16:45.483Z,73.23
2023-02-22T23:19:15.509Z,72.91
2023-02-22T23:21:44.294Z,72.85
2023-02-22T23:24:15.456Z,73.24
2023-02-22T23:26:48.372Z,72.81
2023-02-22T23:29:18.946Z,72.78
2023-02-22T23:31:48.443Z,72.57
2023-02-22T23:34:17.084Z,73.09
2023-02-22T23:36:46.667Z,72.97
2023-02-22T23:39:16.328Z,72.63
2023-02-22T23:41:44.334Z,72.95
2023-02-22T23:44:17.415Z,73.09
2023-02-22T23:46:48.857Z,73.12
2023-02-22T23:49:20.499Z,73.04
2023-02-22T23:51:49.595Z,72.88
2023-02-22T23:54:20.322Z,73.16
2023-02-22T23:56:56.646Z,72.62
2023-02-22T23:59:26.238Z,73.14
